Time;durP1;ratioP1;P1;durP2;ratioP2;P2;SDS_P1;SDS_P2;PMS_P1;PMS_P2;Temp;Humidity;BMP_temperature;BMP_pressure;BME280_temperature;BME280_humidity;BME280_pressure;Samples;Min_cycle;Max_cycle;Signal;HPM_P1;HPM_P2
2023/06/23 00:01:17;;;;;;;5.90;5.28;;;20.00;99.90;;;;;;5094824;28;20020;-52
2023/06/23 00:03:45;;;;;;;8.73;5.43;;;20.00;99.90;;;;;;5094255;28;20024;-51
2023/06/23 00:06:14;;;;;;;6.10;5.50;;;20.10;99.90;;;;;;5094417;28;20026;-53
2023/06/23 00:08:40;;;;;;;9.40;5.18;;;20.00;99.90;;;;;;5094548;28;20054;-54
2023/06/23 00:11:10;;;;;;;6.43;5.15;;;20.10;99.90;;;;;;5094484;28;20491;-53
2023/06/23 00:13:36;;;;;;;7.43;4.72;;;20.10;99.90;;;;;;5093956;28;20439;-51
2023/06/23 00:16:04;;;;;;;5.57;5.03;;;20.10;99.90;;;;;;5094054;28;20395;-55
2023/06/23 00:18:35;;;;;;;6.45;5.75;;;20.20;99.90;;;;;;5094406;28;20024;-54
2023/06/23 00:21:02;;;;;;;7.25;5.22;;;20.10;99.90;;;;;;5094751;28;20016;-54
2023/06/23 00:23:29;;;;;;;5.55;5.03;;;20.20;99.90;;;;;;5094098;28;20020;-51
2023/06/23 00:25:54;;;;;;;5.15;4.68;;;20.20;99.90;;;;;;5075730;28;20415;-55
2023/06/23 00:28:20;;;;;;;5.40;4.72;;;20.20;99.90;;;;;;5094121;28;20038;-52
2023/06/23 00:30:46;;;;;;;5.10;4.60;;;20.20;99.90;;;;;;5094331;28;20476;-55
2023/06/23 00:33:11;;;;;;;8.40;5.13;;;20.10;99.90;;;;;;5093777;28;20488;-55
2023/06/23 00:35:38;;;;;;;6.72;4.95;;;20.10;99.90;;;;;;5093736;28;20398;-57
2023/06/23 00:38:03;;;;;;;5.38;4.88;;;20.20;99.90;;;;;;5094060;28;20032;-56
2023/06/23 00:40:29;;;;;;;6.65;5.10;;;20.30;99.90;;;;;;5092670;28;20095;-56
2023/06/23 00:42:54;;;;;;;6.07;5.05;;;20.30;99.90;;;;;;5092968;28;20058;-57
2023/06/23 00:45:23;;;;;;;8.32;5.18;;;20.30;99.90;;;;;;5093270;28;20028;-52
2023/06/23 00:47:49;;;;;;;7.35;5.18;;;20.20;99.90;;;;;;5093877;28;20031;-51
2023/06/23 00:50:20;;;;;;;7.18;5.65;;;20.20;99.90;;;;;;5093736;28;20149;-51
2023/06/23 00:52:50;;;;;;;6.13;5.32;;;20.20;99.90;;;;;;5093711;28;20028;-51
2023/06/23 00:55:21;;;;;;;6.60;5.22;;;20.10;99.90;;;;;;5093195;28;20028;-53
2023/06/23 00:57:49;;;;;;;8.40;5.15;;;20.10;99.90;;;;;;5093704;28;20024;-53
2023/06/23 01:00:17;;;;;;;6.70;4.78;;;20.10;99.90;;;;;;5093647;28;20229;-55
2023/06/23 01:02:44;;;;;;;6.10;5.05;;;20.10;99.90;;;;;;5093642;28;20028;-54
2023/06/23 01:05:10;;;;;;;9.23;5.10;;;20.00;99.90;;;;;;5092739;28;20016;-52
2023/06/23 01:07:49;;;;;;;10.05;5.30;;;20.00;99.90;;;;;;5093447;28;20043;-54
2023/06/23 01:10:22;;;;;;;6.10;5.10;;;20.00;99.90;;;;;;5093545;28;20033;-52
2023/06/23 01:13:02;;;;;;;6.22;5.03;;;19.90;99.90;;;;;;5093375;28;20028;-52
2023/06/23 01:15:33;;;;;;;8.02;5.10;;;19.90;99.90;;;;;;5092908;28;20021;-53
2023/06/23 01:18:19;;;;;;;5.38;4.72;;;19.90;99.90;;;;;;5093229;28;20083;-56
2023/06/23 01:20:46;;;;;;;5.75;5.25;;;19.90;99.90;;;;;;5093317;28;20245;-55
2023/06/23 01:23:36;;;;;;;4.82;4.40;;;19.90;99.90;;;;;;5074657;28;20503;-53
2023/06/23 01:26:26;;;;;;;7.60;5.15;;;19.90;99.90;;;;;;5093210;28;20024;-53
2023/06/23 01:29:07;;;;;;;7.28;4.53;;;20.00;99.90;;;;;;5092883;28;20028;-55
2023/06/23 01:31:41;;;;;;;6.35;5.55;;;19.90;99.90;;;;;;5093190;28;20020;-51
2023/06/23 01:34:09;;;;;;;5.43;4.93;;;20.00;99.90;;;;;;5092391;28;20031;-50
2023/06/23 01:36:40;;;;;;;7.30;4.80;;;20.00;99.90;;;;;;5092510;28;20032;-52
2023/06/23 01:39:11;;;;;;;5.43;4.47;;;19.90;99.90;;;;;;5092935;28;20487;-52
2023/06/23 01:42:00;;;;;;;7.03;5.40;;;19.90;99.90;;;;;;5092792;28;20023;-51
2023/06/23 01:44:29;;;;;;;4.85;4.35;;;20.00;99.90;;;;;;5091199;28;20240;-55
2023/06/23 01:46:58;;;;;;;5.78;4.82;;;20.00;99.90;;;;;;5092603;28;20024;-51
2023/06/23 01:49:31;;;;;;;5.82;4.88;;;19.90;99.90;;;;;;5092695;28;20020;-53
2023/06/23 01:51:57;;;;;;;5.35;4.90;;;20.00;99.90;;;;;;5092490;28;20031;-54
2023/06/23 01:54:24;;;;;;;6.32;5.35;;;20.00;99.90;;;;;;5091983;28;20036;-52
2023/06/23 01:56:52;;;;;;;10.68;5.82;;;19.90;99.90;;;;;;5092293;28;20050;-51
2023/06/23 01:59:19;;;;;;;6.10;5.45;;;20.00;99.90;;;;;;5092539;28;20028;-51
2023/06/23 02:01:46;;;;;;;7.00;5.45;;;20.00;99.90;;;;;;5092592;28;20036;-52
2023/06/23 02:04:14;;;;;;;5.63;5.00;;;20.00;99.90;;;;;;5092096;28;20024;-51
2023/06/23 02:06:40;;;;;;;8.35;5.57;;;20.00;99.90;;;;;;5091898;28;20387;-52
2023/06/23 02:09:09;;;;;;;5.63;5.07;;;20.10;99.90;;;;;;5092223;28;20039;-55
2023/06/23 02:11:36;;;;;;;6.95;5.80;;;20.10;99.90;;;;;;5092177;28;20035;-56
2023/06/23 02:14:03;;;;;;;8.70;5.45;;;20.10;99.90;;;;;;5091997;28;20452;-52
2023/06/23 02:16:32;;;;;;;6.50;5.07;;;20.10;99.90;;;;;;5091906;28;20038;-57
2023/06/23 02:18:58;;;;;;;7.20;5.47;;;20.10;99.90;;;;;;5092004;28;20097;-53
2023/06/23 02:21:25;;;;;;;6.35;4.68;;;20.10;99.90;;;;;;5092165;28;20024;-53
2023/06/23 02:23:52;;;;;;;5.70;5.20;;;20.10;99.90;;;;;;5091639;28;20020;-52
2023/06/23 02:26:21;;;;;;;5.80;5.30;;;20.10;99.90;;;;;;5091999;28;20032;-53
2023/06/23 02:28:50;;;;;;;6.15;5.53;;;20.10;99.90;;;;;;5091939;28;20028;-57
2023/06/23 02:31:23;;;;;;;5.47;4.60;;;20.10;99.90;;;;;;5091938;28;20020;-55
2023/06/23 02:33:50;;;;;;;7.07;5.10;;;20.10;99.90;;;;;;5091522;28;20035;-56
2023/06/23 02:36:20;;;;;;;5.90;4.85;;;20.10;99.90;;;;;;5091500;28;20024;-55
2023/06/23 02:38:48;;;;;;;5.15;4.65;;;20.10;99.90;;;;;;5073800;28;20032;-54
2023/06/23 02:41:16;;;;;;;5.43;4.82;;;20.00;99.90;;;;;;5091897;28;20379;-54
2023/06/23 02:43:47;;;;;;;5.28;4.88;;;20.00;99.90;;;;;;5090796;28;20100;-55
2023/06/23 02:46:17;;;;;;;5.82;5.20;;;20.00;99.90;;;;;;5091408;28;20158;-54
2023/06/23 02:48:44;;;;;;;5.97;4.90;;;19.90;99.90;;;;;;5091761;28;20089;-54
2023/06/23 02:51:14;;;;;;;7.22;5.65;;;19.90;99.90;;;;;;5091773;28;20020;-55
2023/06/23 02:53:51;;;;;;;5.38;4.85;;;19.90;99.90;;;;;;5091331;28;20073;-54
2023/06/23 02:56:23;;;;;;;5.78;4.75;;;19.90;99.90;;;;;;5091291;28;20073;-54
2023/06/23 02:58:51;;;;;;;7.60;6.18;;;19.80;99.90;;;;;;5091479;28;20020;-53
2023/06/23 03:01:22;;;;;;;6.45;5.85;;;19.70;99.90;;;;;;5073448;28;20039;-52
2023/06/23 03:03:49;;;;;;;6.47;5.32;;;19.80;99.90;;;;;;5090366;28;20027;-56
2023/06/23 03:06:22;;;;;;;6.68;5.70;;;19.80;99.90;;;;;;5091200;28;20020;-55
2023/06/23 03:08:49;;;;;;;9.05;5.82;;;19.80;99.90;;;;;;5091409;28;20104;-53
2023/06/23 03:11:16;;;;;;;6.35;5.68;;;19.80;99.90;;;;;;5091616;28;20483;-53
2023/06/23 03:13:43;;;;;;;5.90;5.40;;;19.80;99.90;;;;;;5091091;28;20062;-52
2023/06/23 03:16:19;;;;;;;6.15;5.55;;;19.80;99.90;;;;;;5090991;28;20027;-57
2023/06/23 03:19:08;;;;;;;6.97;6.28;;;19.80;99.90;;;;;;5091438;28;20481;-56
2023/06/23 03:21:36;;;;;;;7.07;5.47;;;19.80;99.90;;;;;;5091417;28;20032;-55
2023/06/23 03:24:06;;;;;;;6.28;5.68;;;19.80;99.90;;;;;;5090905;28;20093;-53
2023/06/23 03:26:36;;;;;;;13.27;6.40;;;19.80;99.90;;;;;;5091312;28;20103;-55
2023/06/23 03:29:03;;;;;;;7.63;6.28;;;19.80;99.90;;;;;;5091369;28;20032;-53
2023/06/23 03:31:29;;;;;;;6.88;6.25;;;19.80;99.90;;;;;;5091250;28;20024;-51
2023/06/23 03:33:57;;;;;;;7.35;5.60;;;19.80;99.90;;;;;;5090852;28;20115;-54
2023/06/23 03:36:24;;;;;;;8.32;6.32;;;19.80;99.90;;;;;;5090941;28;20485;-55
2023/06/23 03:39:03;;;;;;;9.63;6.10;;;19.80;99.90;;;;;;5091205;28;20023;-54
2023/06/23 03:41:30;;;;;;;7.28;5.57;;;19.90;99.90;;;;;;5091438;28;20380;-54
2023/06/23 03:44:19;;;;;;;7.43;5.43;;;19.90;99.90;;;;;;5089771;28;20099;-54
2023/06/23 03:46:57;;;;;;;6.22;5.63;;;19.90;99.90;;;;;;5077669;28;20440;-55
2023/06/23 03:49:28;;;;;;;6.47;5.40;;;19.90;99.90;;;;;;5091339;28;20020;-56
2023/06/23 03:51:57;;;;;;;6.55;5.95;;;19.80;99.90;;;;;;5091541;28;20028;-51
2023/06/23 03:54:25;;;;;;;7.10;6.15;;;19.80;99.90;;;;;;5090459;28;20063;-51
2023/06/23 03:56:53;;;;;;;8.65;6.80;;;19.70;99.90;;;;;;5090887;28;20024;-50
2023/06/23 03:59:23;;;;;;;7.57;6.72;;;19.60;99.90;;;;;;5091219;28;20055;-51
2023/06/23 04:01:51;;;;;;;10.10;6.93;;;19.50;99.90;;;;;;5091135;28;20399;-51
2023/06/23 04:04:18;;;;;;;11.68;7.50;;;19.50;99.90;;;;;;5090789;28;20383;-51
2023/06/23 04:06:47;;;;;;;7.43;6.65;;;19.50;99.90;;;;;;5090948;28;20395;-52
2023/06/23 04:09:14;;;;;;;6.85;6.25;;;19.50;99.90;;;;;;5091109;28;20063;-53
2023/06/23 04:11:41;;;;;;;7.80;7.05;;;19.50;99.90;;;;;;5091135;28;20101;-51
2023/06/23 04:14:09;;;;;;;7.32;6.57;;;19.50;99.90;;;;;;5090898;28;20505;-52
2023/06/23 04:16:37;;;;;;;7.88;6.30;;;19.50;99.90;;;;;;5094133;28;20032;-56
2023/06/23 04:19:04;;;;;;;9.85;7.05;;;19.50;99.90;;;;;;5095328;28;20045;-53
2023/06/23 04:21:32;;;;;;;8.25;6.63;;;19.50;99.90;;;;;;5094965;28;20090;-52
2023/06/23 04:24:02;;;;;;;9.25;6.55;;;19.60;99.90;;;;;;5094583;28;20093;-54
2023/06/23 04:26:28;;;;;;;8.90;7.28;;;19.60;99.90;;;;;;5094996;28;20541;-56
2023/06/23 04:28:55;;;;;;;7.38;6.47;;;19.50;99.90;;;;;;5095081;28;20044;-55
2023/06/23 04:31:23;;;;;;;6.60;5.55;;;19.50;99.90;;;;;;5095142;28;20024;-54
2023/06/23 04:33:49;;;;;;;8.13;5.60;;;19.40;99.90;;;;;;5094658;28;20028;-55
2023/06/23 04:36:20;;;;;;;6.57;5.38;;;19.40;99.90;;;;;;5094536;28;20027;-55
2023/06/23 04:38:57;;;;;;;8.18;4.90;;;19.40;99.90;;;;;;5094823;28;20016;-51
2023/06/23 04:41:26;;;;;;;5.80;5.20;;;19.40;99.90;;;;;;5094547;28;20020;-55
2023/06/23 04:43:56;;;;;;;5.63;5.13;;;19.40;99.90;;;;;;5074570;28;20016;-52
2023/06/23 04:46:28;;;;;;;5.43;4.63;;;19.40;99.90;;;;;;5093927;28;20558;-53
2023/06/23 04:48:59;;;;;;;6.80;4.75;;;19.30;99.90;;;;;;5094214;28;20024;-54
2023/06/23 04:51:28;;;;;;;5.72;5.20;;;19.40;99.90;;;;;;5094338;28;20073;-55
2023/06/23 04:53:59;;;;;;;8.05;4.75;;;19.30;99.90;;;;;;5093711;28;20110;-54
2023/06/23 04:56:28;;;;;;;4.40;3.90;;;19.30;99.90;;;;;;5093747;28;20024;-51
2023/06/23 04:58:56;;;;;;;9.27;4.63;;;19.30;99.90;;;;;;5094108;28;20062;-52
2023/06/23 05:01:22;;;;;;;6.55;4.50;;;19.20;99.90;;;;;;5093665;28;20020;-53
2023/06/23 05:03:49;;;;;;;9.85;4.50;;;19.20;99.90;;;;;;5093301;28;20035;-52
2023/06/23 05:06:17;;;;;;;5.65;4.10;;;19.20;99.90;;;;;;5093247;28;20027;-51
2023/06/23 05:08:45;;;;;;;4.10;3.70;;;19.20;99.90;;;;;;5093574;28;20020;-54
2023/06/23 05:11:13;;;;;;;5.28;4.63;;;19.20;99.90;;;;;;5093510;28;20019;-57
2023/06/23 05:13:41;;;;;;;5.30;4.80;;;19.20;99.90;;;;;;5074905;28;20102;-54
2023/06/23 05:16:10;;;;;;;6.18;4.30;;;19.10;99.90;;;;;;5092924;28;20030;-52
2023/06/23 05:18:37;;;;;;;5.78;4.20;;;19.10;99.90;;;;;;5093232;28;20039;-53
2023/06/23 05:21:04;;;;;;;8.63;4.82;;;19.10;99.90;;;;;;5093251;28;20031;-55
2023/06/23 05:23:35;;;;;;;4.45;4.05;;;19.20;99.90;;;;;;5092881;28;20024;-54
2023/06/23 05:26:02;;;;;;;6.35;4.35;;;19.20;99.90;;;;;;5092405;28;20372;-55
2023/06/23 05:28:32;;;;;;;4.88;4.30;;;19.20;99.90;;;;;;5095708;22;20095;-48
2023/06/23 05:30:59;;;;;;;8.27;3.67;;;19.20;99.90;;;;;;5053073;28;20075;-41
2023/06/23 05:33:26;;;;;;;6.07;4.70;;;19.20;99.90;;;;;;5052469;28;20025;-47
2023/06/23 05:35:53;;;;;;;4.65;4.25;;;19.30;99.90;;;;;;5052396;28;20040;-47
2023/06/23 05:38:20;;;;;;;5.10;4.03;;;19.30;99.90;;;;;;5052716;28;20025;-52
2023/06/23 05:40:45;;;;;;;5.93;4.47;;;19.20;99.90;;;;;;5052746;28;20400;-45
2023/06/23 05:43:11;;;;;;;5.05;4.55;;;19.20;99.90;;;;;;5051349;28;20021;-46
2023/06/23 05:45:37;;;;;;;7.18;4.60;;;19.20;99.90;;;;;;5034382;28;20029;-48
2023/06/23 05:48:27;;;;;;;5.15;4.47;;;19.20;99.90;;;;;;5052545;28;20262;-50
2023/06/23 05:50:55;;;;;;;5.65;5.15;;;19.20;99.90;;;;;;5052652;28;20021;-47
2023/06/23 05:53:24;;;;;;;5.82;5.03;;;19.20;99.90;;;;;;5052012;28;20028;-43
2023/06/23 05:56:15;;;;;;;5.07;4.63;;;19.20;99.90;;;;;;5052034;28;20036;-50
2023/06/23 05:58:46;;;;;;;7.72;5.75;;;19.20;99.90;;;;;;5052244;28;20025;-48
2023/06/23 06:01:16;;;;;;;6.97;5.47;;;19.20;99.90;;;;;;5052297;28;20420;-45
2023/06/23 06:03:49;;;;;;;6.85;5.47;;;19.30;99.90;;;;;;5051894;28;20043;-48
2023/06/23 06:06:15;;;;;;;9.52;5.00;;;19.30;99.90;;;;;;5033925;28;20055;-44
2023/06/23 06:08:43;;;;;;;9.30;5.55;;;19.30;99.90;;;;;;5034529;28;20017;-46
2023/06/23 06:11:10;;;;;;;7.22;5.03;;;19.40;99.90;;;;;;5052841;28;20040;-46
2023/06/23 06:13:40;;;;;;;8.40;5.53;;;19.40;99.90;;;;;;5052213;28;20353;-44
2023/06/23 06:16:09;;;;;;;6.95;5.15;;;19.50;99.90;;;;;;5051804;28;20017;-51
2023/06/23 06:18:36;;;;;;;6.65;5.90;;;19.50;99.90;;;;;;5052739;28;20023;-50
2023/06/23 06:21:04;;;;;;;13.35;6.40;;;19.60;99.90;;;;;;5052595;28;20023;-50
2023/06/23 06:23:31;;;;;;;7.70;5.60;;;19.70;99.90;;;;;;5052422;28;20515;-48
2023/06/23 06:25:59;;;;;;;8.82;5.88;;;19.80;99.90;;;;;;5051603;28;20028;-48
2023/06/23 06:28:26;;;;;;;8.48;6.15;;;20.00;99.90;;;;;;5051942;28;20098;-47
2023/06/23 06:30:54;;;;;;;9.13;5.28;;;20.30;99.90;;;;;;5034352;28;20111;-46
2023/06/23 06:33:20;;;;;;;7.40;5.95;;;20.60;99.90;;;;;;5051410;28;20542;-45
2023/06/23 06:35:48;;;;;;;6.18;4.97;;;20.70;99.90;;;;;;5051434;28;20108;-45
2023/06/23 06:38:16;;;;;;;5.57;4.68;;;20.60;99.90;;;;;;5051477;28;20052;-48
2023/06/23 06:40:44;;;;;;;6.13;5.47;;;20.60;99.90;;;;;;5051490;28;20035;-46
2023/06/23 06:43:10;;;;;;;7.38;4.90;;;20.50;99.90;;;;;;5050039;28;20020;-45
2023/06/23 06:45:35;;;;;;;5.20;4.63;;;20.50;99.90;;;;;;5051684;28;20389;-50
2023/06/23 06:48:03;;;;;;;19.80;5.13;;;20.30;99.90;;;;;;5051343;28;20071;-50
2023/06/23 06:50:30;;;;;;;7.80;5.78;;;20.20;99.90;;;;;;5051529;28;20028;-50
2023/06/23 06:52:56;;;;;;;7.15;6.45;;;20.10;99.90;;;;;;5051570;28;20037;-44
2023/06/23 06:55:22;;;;;;;6.00;5.43;;;20.10;99.90;;;;;;5050811;28;20154;-45
2023/06/23 06:57:48;;;;;;;9.50;5.78;;;20.00;99.90;;;;;;5051596;28;20104;-49
2023/06/23 07:00:17;;;;;;;7.10;6.10;;;20.00;99.90;;;;;;5051537;28;20021;-50
2023/06/23 07:02:43;;;;;;;5.78;5.18;;;19.90;99.90;;;;;;5051669;28;20067;-48
2023/06/23 07:05:09;;;;;;;6.03;5.25;;;20.10;99.90;;;;;;5050823;28;20057;-47
2023/06/23 07:07:35;;;;;;;8.27;5.70;;;20.20;99.90;;;;;;5051357;28;20110;-48
2023/06/23 07:10:01;;;;;;;5.70;5.20;;;20.30;99.90;;;;;;5051493;28;20025;-51
2023/06/23 07:12:27;;;;;;;5.90;5.30;;;20.80;99.90;;;;;;5051343;28;20135;-47
2023/06/23 07:14:52;;;;;;;6.20;5.00;;;20.90;99.90;;;;;;5050942;28;20057;-47
2023/06/23 07:17:18;;;;;;;6.47;5.10;;;20.90;99.90;;;;;;5033323;28;20078;-44
2023/06/23 07:19:43;;;;;;;7.63;5.18;;;21.00;99.90;;;;;;5051181;28;20067;-46
2023/06/23 07:22:09;;;;;;;8.88;5.40;;;21.30;99.90;;;;;;5033457;28;20018;-49
2023/06/23 07:24:35;;;;;;;6.68;5.95;;;22.00;99.90;;;;;;5050733;28;20021;-50
2023/06/23 07:27:00;;;;;;;7.10;4.80;;;22.10;99.90;;;;;;5033596;28;20025;-51
2023/06/23 07:29:26;;;;;;;5.35;4.85;;;22.80;99.90;;;;;;5033655;28;20448;-48
2023/06/23 07:31:51;;;;;;;6.25;5.15;;;23.30;99.90;;;;;;5051249;28;20104;-47
2023/06/23 07:34:17;;;;;;;6.10;5.50;;;24.20;99.90;;;;;;5050699;28;20103;-45
2023/06/23 07:36:42;;;;;;;5.30;4.80;;;24.40;99.50;;;;;;5050650;28;20029;-49
2023/06/23 07:39:09;;;;;;;7.75;4.80;;;24.20;99.70;;;;;;5050920;28;20108;-46
2023/06/23 07:41:35;;;;;;;6.05;4.75;;;24.10;99.70;;;;;;5050711;28;20101;-53
2023/06/23 07:44:01;;;;;;;5.68;5.03;;;24.70;98.50;;;;;;5049332;28;20100;-45
2023/06/23 07:46:26;;;;;;;7.78;5.30;;;24.50;98.20;;;;;;5050439;28;20481;-48
2023/06/23 07:48:52;;;;;;;6.97;4.95;;;24.90;98.40;;;;;;5050986;28;20543;-45
2023/06/23 07:51:17;;;;;;;6.45;5.20;;;24.50;98.40;;;;;;5053886;28;20452;-47
2023/06/23 07:53:43;;;;;;;19.10;5.20;;;24.40;98.40;;;;;;5054271;28;20090;-44
2023/06/23 07:56:12;;;;;;;6.50;5.38;;;24.10;98.50;;;;;;5054115;28;20060;-44
2023/06/23 07:58:38;;;;;;;7.88;5.35;;;24.10;98.40;;;;;;5054580;28;20017;-48
2023/06/23 08:01:03;;;;;;;9.93;5.40;;;24.10;98.70;;;;;;5054620;28;20024;-45
2023/06/23 08:03:29;;;;;;;7.53;4.95;;;24.40;98.70;;;;;;5053893;28;20029;-50
2023/06/23 08:05:54;;;;;;;5.53;4.88;;;24.60;98.20;;;;;;5054315;28;20029;-49
2023/06/23 08:08:20;;;;;;;6.03;5.40;;;25.30;97.50;;;;;;5054330;28;20414;-44
2023/06/23 08:10:45;;;;;;;5.47;4.97;;;25.50;96.40;;;;;;5054418;28;20088;-44
2023/06/23 08:13:11;;;;;;;8.35;5.47;;;24.90;96.90;;;;;;5054049;28;20400;-43
2023/06/23 08:15:36;;;;;;;7.07;4.88;;;23.90;98.20;;;;;;5053833;28;20461;-53
2023/06/23 08:18:02;;;;;;;6.38;5.15;;;24.10;98.10;;;;;;5054270;28;20037;-47
2023/06/23 08:20:28;;;;;;;6.20;5.13;;;23.70;98.30;;;;;;5054075;28;20108;-43
2023/06/23 08:22:54;;;;;;;7.80;5.22;;;23.80;98.70;;;;;;5054544;28;20078;-46
2023/06/23 08:25:20;;;;;;;5.43;4.88;;;23.90;98.00;;;;;;5053680;28;20033;-47
2023/06/23 08:27:45;;;;;;;6.80;5.53;;;24.10;97.80;;;;;;5054218;28;20036;-45
2023/06/23 08:30:11;;;;;;;8.75;5.07;;;24.00;97.90;;;;;;5053839;28;20484;-44
2023/06/23 08:32:36;;;;;;;6.10;5.38;;;23.60;98.20;;;;;;5051790;28;20045;-50
2023/06/23 08:35:02;;;;;;;5.82;5.25;;;23.60;98.20;;;;;;5042033;28;20032;-45
2023/06/23 08:37:28;;;;;;;6.20;5.43;;;23.70;98.50;;;;;;5052484;28;20064;-43
2023/06/23 08:39:53;;;;;;;5.65;5.15;;;23.80;98.40;;;;;;5054139;28;20025;-49
2023/06/23 08:42:20;;;;;;;6.05;5.05;;;23.90;98.20;;;;;;5054431;28;20025;-48
2023/06/23 08:44:48;;;;;;;6.05;5.40;;;24.40;97.70;;;;;;5053447;28;20021;-49
2023/06/23 08:47:17;;;;;;;6.43;5.38;;;24.60;97.30;;;;;;5052582;28;20025;-47
2023/06/23 08:49:45;;;;;;;7.60;4.95;;;24.90;96.90;;;;;;5053453;28;20052;-47
2023/06/23 08:52:11;;;;;;;6.53;5.13;;;25.10;96.60;;;;;;5053575;28;20036;-49
2023/06/23 08:54:37;;;;;;;10.80;5.00;;;25.10;96.10;;;;;;5053761;28;20029;-47
2023/06/23 08:57:04;;;;;;;5.90;5.18;;;25.20;96.50;;;;;;5054226;28;20481;-46
2023/06/23 08:59:30;;;;;;;6.10;4.90;;;25.60;95.50;;;;;;5053549;28;20485;-44
2023/06/23 09:01:56;;;;;;;10.60;4.90;;;25.80;95.90;;;;;;5052313;28;20056;-46
2023/06/23 09:04:21;;;;;;;7.13;5.25;;;25.60;95.40;;;;;;5051460;28;20029;-46
2023/06/23 09:06:47;;;;;;;5.85;4.90;;;25.00;95.70;;;;;;5052858;28;20086;-47
2023/06/23 09:09:13;;;;;;;6.03;5.25;;;24.90;96.00;;;;;;5053579;28;20033;-48
2023/06/23 09:11:39;;;;;;;7.20;5.10;;;25.30;95.80;;;;;;5035107;28;20096;-50
2023/06/23 09:14:06;;;;;;;7.55;5.07;;;25.30;95.80;;;;;;5052110;28;20025;-48
2023/06/23 09:16:32;;;;;;;5.47;4.90;;;24.80;96.20;;;;;;5052227;28;20037;-50
2023/06/23 09:19:00;;;;;;;11.90;5.05;;;24.90;96.80;;;;;;5052723;28;20114;-50
2023/06/23 09:21:26;;;;;;;6.80;4.97;;;24.90;96.70;;;;;;5053030;28;20013;-47
2023/06/23 09:24:02;;;;;;;8.63;5.03;;;25.00;95.70;;;;;;5052349;28;20029;-49
2023/06/23 09:26:28;;;;;;;7.53;4.95;;;24.90;96.00;;;;;;5032633;28;20029;-48
2023/06/23 09:29:17;;;;;;;5.57;5.07;;;25.00;95.90;;;;;;5039687;28;20033;-48
2023/06/23 09:31:43;;;;;;;6.03;5.05;;;25.30;95.40;;;;;;5052876;28;20166;-48
2023/06/23 09:34:08;;;;;;;11.27;5.22;;;25.30;95.20;;;;;;5052740;28;20021;-47
2023/06/23 09:36:35;;;;;;;6.20;5.25;;;25.20;94.90;;;;;;5052312;28;20048;-49
2023/06/23 09:39:01;;;;;;;13.68;7.68;;;25.00;95.20;;;;;;5034707;28;20025;-46
2023/06/23 09:41:31;;;;;;;6.80;5.05;;;25.30;95.10;;;;;;5046134;28;20036;-46
2023/06/23 09:43:57;;;;;;;5.75;5.35;;;25.30;94.90;;;;;;5060160;28;20033;-44
2023/06/23 09:46:22;;;;;;;5.15;4.70;;;25.30;95.40;;;;;;5064060;28;20412;-51
2023/06/23 09:48:50;;;;;;;5.32;4.88;;;25.20;95.20;;;;;;5058608;28;20057;-58
2023/06/23 09:51:19;;;;;;;5.28;4.80;;;24.90;95.00;;;;;;5052580;28;20371;-59
2023/06/23 09:53:45;;;;;;;5.18;4.72;;;24.80;95.50;;;;;;5034822;28;20090;-48
2023/06/23 09:56:21;;;;;;;6.50;5.28;;;24.90;95.50;;;;;;5052108;28;20029;-48
2023/06/23 09:58:47;;;;;;;7.60;5.20;;;24.80;95.50;;;;;;5051871;28;20028;-46
2023/06/23 10:01:15;;;;;;;5.75;5.22;;;24.70;95.60;;;;;;5030447;28;20030;-44
2023/06/23 10:03:52;;;;;;;7.38;4.93;;;24.60;95.30;;;;;;5056914;28;20020;-56
2023/06/23 10:06:32;;;;;;;6.93;4.20;;;24.30;95.50;;;;;;5051092;28;20052;-47
2023/06/23 10:08:59;;;;;;;7.28;4.80;;;24.50;95.30;;;;;;5062021;28;20071;-47
2023/06/23 10:11:33;;;;;;;5.20;4.70;;;24.80;95.70;;;;;;5064704;28;20396;-49
2023/06/23 10:14:05;;;;;;;9.52;5.30;;;25.00;95.50;;;;;;5048485;28;20091;-49
2023/06/23 10:16:31;;;;;;;6.88;5.40;;;25.30;95.50;;;;;;5058418;28;20451;-47
2023/06/23 10:18:57;;;;;;;8.73;5.43;;;25.20;95.50;;;;;;5049891;28;20060;-52
2023/06/23 10:21:23;;;;;;;6.70;4.47;;;25.00;95.40;;;;;;5051663;28;20029;-48
2023/06/23 10:23:52;;;;;;;5.13;4.63;;;25.10;95.40;;;;;;5061608;28;20051;-46
2023/06/23 10:26:19;;;;;;;5.88;4.75;;;25.10;95.30;;;;;;5062524;28;20081;-47
2023/06/23 10:28:46;;;;;;;4.40;4.03;;;25.00;94.60;;;;;;5035028;28;20035;-47
2023/06/23 10:31:12;;;;;;;5.82;4.38;;;25.00;94.40;;;;;;5041251;28;20501;-48
2023/06/23 10:33:40;;;;;;;4.78;4.35;;;25.00;94.50;;;;;;5062889;28;20028;-46
2023/06/23 10:36:07;;;;;;;5.50;4.57;;;25.10;94.40;;;;;;5071312;28;20023;-47
2023/06/23 10:38:33;;;;;;;7.10;5.18;;;25.10;94.30;;;;;;5064158;28;20493;-47
2023/06/23 10:41:00;;;;;;;7.28;5.00;;;25.20;94.40;;;;;;5045531;28;20033;-52
2023/06/23 10:43:31;;;;;;;4.93;4.40;;;25.00;94.70;;;;;;5035542;28;20511;-48
2023/06/23 10:45:59;;;;;;;5.03;4.63;;;24.50;94.60;;;;;;5050907;28;20025;-49
2023/06/23 10:48:29;;;;;;;4.50;4.13;;;24.20;94.80;;;;;;5055510;28;20569;-52
2023/06/23 10:50:55;;;;;;;7.13;4.65;;;23.90;95.00;;;;;;5038917;28;20123;-50
2023/06/23 10:53:28;;;;;;;4.78;4.22;;;23.80;95.30;;;;;;5062478;28;20111;-49
2023/06/23 10:55:57;;;;;;;4.90;4.50;;;23.90;95.50;;;;;;5050649;28;20025;-46
2023/06/23 10:58:23;;;;;;;7.88;4.75;;;23.80;95.40;;;;;;5059670;28;20040;-47
2023/06/23 11:00:54;;;;;;;7.13;4.78;;;23.80;95.50;;;;;;5071167;28;20487;-50
2023/06/23 11:03:26;;;;;;;7.65;6.07;;;23.70;95.70;;;;;;5058428;28;20033;-46
2023/06/23 11:05:56;;;;;;;5.45;4.47;;;23.80;95.80;;;;;;5055023;28;20027;-51
2023/06/23 11:08:31;;;;;;;8.35;4.95;;;23.90;95.50;;;;;;5062284;28;20029;-50
2023/06/23 11:11:10;;;;;;;6.03;4.18;;;23.90;95.60;;;;;;5071298;28;20035;-51
2023/06/23 11:13:47;;;;;;;4.78;4.28;;;23.90;95.60;;;;;;5061492;28;20025;-50
2023/06/23 11:16:15;;;;;;;5.32;4.20;;;23.80;95.90;;;;;;5049787;28;20029;-46
2023/06/23 11:19:25;;;;;;;5.15;3.67;;;23.60;95.90;;;;;;5050527;28;20515;-48
2023/06/23 11:22:08;;;;;;;4.82;4.07;;;23.60;95.60;;;;;;5044858;28;20025;-47
2023/06/23 11:24:33;;;;;;;5.25;3.97;;;23.40;95.80;;;;;;5061124;28;20055;-48
2023/06/23 11:27:02;;;;;;;4.97;3.90;;;23.50;96.00;;;;;;5075071;28;20029;-48
2023/06/23 11:29:28;;;;;;;6.03;4.47;;;23.50;96.00;;;;;;5074469;28;20497;-50
2023/06/23 11:32:10;;;;;;;5.43;4.22;;;23.60;96.30;;;;;;5074913;28;20029;-48
2023/06/23 11:35:06;;;;;;;5.63;4.22;;;23.60;96.30;;;;;;5073999;28;20106;-46
2023/06/23 11:37:33;;;;;;;4.00;3.70;;;23.70;96.00;;;;;;5044759;28;20049;-45
2023/06/23 11:40:00;;;;;;;9.68;4.50;;;23.70;95.70;;;;;;5066992;28;20044;-45
2023/06/23 11:42:26;;;;;;;4.20;3.80;;;23.60;95.90;;;;;;5072196;28;20362;-48
2023/06/23 11:44:55;;;;;;;3.92;3.60;;;23.70;95.80;;;;;;5074839;28;20101;-46
2023/06/23 11:47:25;;;;;;;3.83;3.40;;;23.70;95.40;;;;;;5066780;28;20377;-44
2023/06/23 11:49:52;;;;;;;9.45;3.55;;;23.80;95.30;;;;;;5067207;28;20031;-47
2023/06/23 11:52:19;;;;;;;6.20;3.88;;;23.80;95.30;;;;;;5074664;28;20024;-49
2023/06/23 11:54:47;;;;;;;5.07;4.07;;;23.80;95.40;;;;;;5070879;28;20032;-49
2023/06/23 11:57:12;;;;;;;8.82;3.58;;;24.00;95.40;;;;;;5065900;28;20053;-46
2023/06/23 11:59:39;;;;;;;5.93;4.55;;;24.10;94.60;;;;;;5074378;28;20077;-44
2023/06/23 12:02:05;;;;;;;4.22;3.65;;;24.10;94.70;;;;;;5074707;28;20052;-44
2023/06/23 12:04:36;;;;;;;5.10;4.05;;;24.10;94.70;;;;;;5073539;28;20024;-47
2023/06/23 12:07:03;;;;;;;4.85;4.03;;;24.20;94.70;;;;;;5073876;28;20074;-48
2023/06/23 12:09:30;;;;;;;3.88;3.42;;;24.50;94.90;;;;;;5074137;28;20025;-49
2023/06/23 12:11:57;;;;;;;3.75;3.45;;;24.60;94.70;;;;;;5069294;28;20054;-47
2023/06/23 12:14:36;;;;;;;5.03;3.28;;;24.80;94.20;;;;;;5065549;28;20074;-46
2023/06/23 12:17:09;;;;;;;6.80;3.90;;;24.90;93.90;;;;;;5074826;28;20435;-45
2023/06/23 12:19:35;;;;;;;9.65;8.07;;;24.80;93.90;;;;;;5074092;28;20017;-51
2023/06/23 12:22:01;;;;;;;4.75;4.18;;;24.70;93.40;;;;;;5073975;28;20073;-45
2023/06/23 12:24:30;;;;;;;5.40;3.58;;;24.40;94.00;;;;;;5073375;28;20033;-45
2023/06/23 12:27:00;;;;;;;4.13;3.40;;;24.20;93.90;;;;;;5073637;28;20029;-50
2023/06/23 12:29:29;;;;;;;4.43;3.55;;;24.20;94.00;;;;;;5074407;28;20519;-44
2023/06/23 12:31:59;;;;;;;3.30;3.00;;;24.50;93.90;;;;;;5073993;28;20136;-44
2023/06/23 12:34:45;;;;;;;4.60;3.88;;;24.50;94.20;;;;;;5073553;28;20027;-44
2023/06/23 12:37:12;;;;;;;3.90;3.50;;;24.60;94.20;;;;;;5073353;28;20115;-48
2023/06/23 12:39:37;;;;;;;3.65;3.35;;;24.70;93.60;;;;;;5073818;28;20099;-45
2023/06/23 12:42:06;;;;;;;8.45;3.97;;;24.80;94.10;;;;;;5073729;28;20154;-46
2023/06/23 12:44:32;;;;;;;7.47;3.92;;;24.70;94.20;;;;;;5073033;28;20024;-47
2023/06/23 12:47:01;;;;;;;4.40;3.53;;;24.70;94.30;;;;;;5073614;28;20025;-49
2023/06/23 12:49:33;;;;;;;5.72;3.53;;;24.80;93.40;;;;;;5055376;28;20039;-45
2023/06/23 12:52:00;;;;;;;3.08;2.78;;;24.80;93.70;;;;;;5073633;28;20032;-46
2023/06/23 12:54:26;;;;;;;3.35;3.00;;;24.90;93.10;;;;;;5072855;28;20028;-49